Time;durP1;ratioP1;P1;durP2;ratioP2;P2;SDS_P1;SDS_P2;PMS_P1;PMS_P2;Temp;Humidity;BMP_temperature;BMP_pressure;BME280_temperature;BME280_humidity;BME280_pressure;Samples;Min_cycle;Max_cycle;Signal;HPM_P1;HPM_P2
2023/03/29 00:02:28;;;;;;;4.47;1.42;;;5.40;99.90;;;;;;6249171;22;20049;-83
2023/03/29 00:04:55;;;;;;;3.35;1.33;;;5.50;99.90;;;;;;6221420;22;20012;-83
2023/03/29 00:07:22;;;;;;;3.83;1.30;;;5.50;99.90;;;;;;6218298;22;20042;-83
2023/03/29 00:09:48;;;;;;;5.63;1.70;;;5.40;99.90;;;;;;6243514;22;20049;-89
2023/03/29 00:12:14;;;;;;;4.27;1.27;;;5.50;99.90;;;;;;6271430;22;20076;-83
2023/03/29 00:14:40;;;;;;;3.13;1.27;;;5.40;99.90;;;;;;6271703;22;20012;-83
2023/03/29 00:17:05;;;;;;;3.13;1.23;;;5.40;99.90;;;;;;6244708;22;20336;-86
2023/03/29 00:19:34;;;;;;;2.93;1.10;;;5.40;99.90;;;;;;6244784;22;20024;-84
2023/03/29 00:22:01;;;;;;;3.90;1.48;;;5.40;99.90;;;;;;6271805;22;20044;-85
2023/03/29 00:24:27;;;;;;;;;;;5.40;99.90;;;;;;6271995;22;20024;-84
2023/03/29 00:26:52;;;;;;;4.25;1.25;;;5.40;99.90;;;;;;6271372;22;19921;-86
2023/03/29 00:29:18;;;;;;;3.23;1.17;;;5.40;99.90;;;;;;6244881;22;20511;-83
2023/03/29 00:31:50;;;;;;;4.03;1.50;;;5.40;99.90;;;;;;6244848;22;20024;-83
2023/03/29 00:34:15;;;;;;;3.40;1.17;;;5.40;99.90;;;;;;6245249;22;20458;-87
2023/03/29 00:36:42;;;;;;;3.50;1.23;;;5.40;99.90;;;;;;6244912;22;20051;-83
2023/03/29 00:39:08;;;;;;;3.50;1.27;;;5.40;99.90;;;;;;6244325;22;20027;-85
2023/03/29 00:41:34;;;;;;;2.80;1.20;;;5.40;99.90;;;;;;6271609;22;20329;-85
2023/03/29 00:44:02;;;;;;;3.70;1.50;;;5.40;99.90;;;;;;6244475;22;20016;-85
2023/03/29 00:46:29;;;;;;;5.70;1.50;;;5.40;99.90;;;;;;6244342;22;20107;-86
2023/03/29 00:49:06;;;;;;;;;;;5.40;99.90;;;;;;6244915;22;20438;-85
2023/03/29 00:51:35;;;;;;;2.83;1.10;;;5.40;99.90;;;;;;6244793;22;19969;-85
2023/03/29 00:54:04;;;;;;;3.78;1.17;;;5.40;99.90;;;;;;6244661;22;20396;-85
2023/03/29 00:56:38;;;;;;;3.25;1.13;;;5.40;99.90;;;;;;6244535;22;20026;-83
2023/03/29 00:59:18;;;;;;;2.70;1.25;;;5.40;99.90;;;;;;6244461;22;20016;-84
2023/03/29 01:01:57;;;;;;;4.07;1.50;;;5.40;99.90;;;;;;6271880;22;20023;-83
2023/03/29 01:04:46;;;;;;;2.88;0.95;;;5.40;99.90;;;;;;6244373;22;20016;-83
2023/03/29 01:07:20;;;;;;;3.00;1.27;;;5.40;99.90;;;;;;6271339;22;20027;-88
2023/03/29 01:10:09;;;;;;;3.42;1.02;;;5.40;99.90;;;;;;6271556;22;20513;-84
2023/03/29 01:12:41;;;;;;;4.25;1.48;;;5.40;99.90;;;;;;6271545;22;20022;-85
2023/03/29 01:15:12;;;;;;;2.00;0.93;;;5.40;99.90;;;;;;6244489;22;20374;-88
2023/03/29 01:17:42;;;;;;;6.22;1.23;;;5.40;99.90;;;;;;6244619;22;20352;-85
2023/03/29 01:20:21;;;;;;;2.90;1.00;;;5.40;99.90;;;;;;6244556;22;20344;-89
2023/03/29 01:23:31;;;;;;;2.60;1.10;;;5.30;99.90;;;;;;6244198;22;20020;-86
2023/03/29 01:26:04;;;;;;;3.88;1.30;;;5.40;99.90;;;;;;6252628;22;20020;-86
2023/03/29 01:28:38;;;;;;;3.00;1.25;;;5.40;99.90;;;;;;6244588;22;20020;-86
2023/03/29 01:31:07;;;;;;;3.60;1.20;;;5.40;99.90;;;;;;6219240;22;20094;-89
2023/03/29 01:33:50;;;;;;;3.35;1.02;;;5.40;99.90;;;;;;6271591;22;20023;-87
2023/03/29 01:36:26;;;;;;;4.50;1.60;;;5.40;99.90;;;;;;6244194;22;20019;-87
2023/03/29 01:39:05;;;;;;;2.97;1.13;;;5.40;99.90;;;;;;6244065;22;20104;-86
2023/03/29 01:41:42;;;;;;;4.28;1.20;;;5.40;99.90;;;;;;6244112;22;20100;-91
2023/03/29 01:44:15;;;;;;;3.20;1.40;;;5.40;99.90;;;;;;6244163;22;20031;-87
2023/03/29 01:46:54;;;;;;;2.22;1.00;;;5.50;99.90;;;;;;6244303;22;20015;-85
2023/03/29 01:49:36;;;;;;;4.03;1.25;;;5.40;99.90;;;;;;6244132;22;20027;-85
2023/03/29 01:52:09;;;;;;;3.28;0.95;;;5.50;99.90;;;;;;6244698;22;20353;-86
2023/03/29 01:54:39;;;;;;;6.28;1.20;;;5.50;99.90;;;;;;6219280;22;20016;-86
2023/03/29 01:57:09;;;;;;;4.53;1.30;;;5.50;99.90;;;;;;6271754;22;20122;-88
2023/03/29 01:59:39;;;;;;;2.38;1.05;;;5.50;99.90;;;;;;6244094;22;20149;-85
2023/03/29 02:02:10;;;;;;;3.42;1.20;;;5.50;99.90;;;;;;6244073;22;20329;-86
2023/03/29 02:04:47;;;;;;;3.70;1.30;;;5.50;99.90;;;;;;6243787;22;20094;-91
2023/03/29 02:07:14;;;;;;;;;;;5.50;99.90;;;;;;6244181;22;20028;-90
2023/03/29 02:09:41;;;;;;;4.57;1.30;;;5.50;99.90;;;;;;6243940;22;19942;-86
2023/03/29 02:12:08;;;;;;;4.18;1.30;;;5.50;99.90;;;;;;6244065;22;20052;-87
2023/03/29 02:14:34;;;;;;;2.95;1.08;;;5.50;99.90;;;;;;6243849;22;20115;-86
2023/03/29 02:17:32;;;;;;;4.27;1.53;;;5.50;99.90;;;;;;6243806;22;20020;-86
2023/03/29 02:20:42;;;;;;;3.70;1.52;;;5.50;99.90;;;;;;6262228;22;20019;-87
2023/03/29 02:23:17;;;;;;;3.83;1.30;;;5.50;99.90;;;;;;6303678;22;20026;-87
2023/03/29 02:25:44;;;;;;;4.40;1.55;;;5.40;99.90;;;;;;6248330;22;20241;-87
2023/03/29 02:28:10;;;;;;;4.68;1.63;;;5.40;99.90;;;;;;6243711;22;20101;-87
2023/03/29 02:31:13;;;;;;;3.75;1.50;;;5.40;99.90;;;;;;6243642;22;20011;-88
2023/03/29 02:33:53;;;;;;;4.75;1.70;;;5.40;99.90;;;;;;6243834;22;20064;-89
2023/03/29 02:36:23;;;;;;;4.00;1.67;;;5.40;99.90;;;;;;6243887;22;20102;-84
2023/03/29 02:38:50;;;;;;;4.80;1.70;;;5.40;99.90;;;;;;6244057;22;20016;-86
2023/03/29 02:41:16;;;;;;;4.20;1.85;;;5.40;99.90;;;;;;6219046;22;20022;-91
2023/03/29 02:43:45;;;;;;;4.13;1.50;;;5.40;99.90;;;;;;6270763;22;20513;-87
2023/03/29 02:46:13;;;;;;;4.63;1.70;;;5.40;99.90;;;;;;6270900;22;20599;-91
2023/03/29 02:48:40;;;;;;;4.80;1.90;;;5.40;99.90;;;;;;6243647;22;20019;-86
2023/03/29 02:51:18;;;;;;;4.95;1.73;;;5.50;99.90;;;;;;6243533;22;20042;-86
2023/03/29 02:54:05;;;;;;;5.03;2.13;;;5.40;99.90;;;;;;6243828;22;20020;-86
2023/03/29 02:56:54;;;;;;;4.70;2.20;;;5.40;99.90;;;;;;6244360;22;20059;-84
2023/03/29 02:59:23;;;;;;;4.57;1.70;;;5.40;99.90;;;;;;6276001;22;20042;-86
2023/03/29 03:01:51;;;;;;;5.22;1.75;;;5.40;99.90;;;;;;6248991;22;20094;-86
2023/03/29 03:04:19;;;;;;;6.55;1.73;;;5.40;99.90;;;;;;6247347;22;20095;-93
2023/03/29 03:06:45;;;;;;;3.85;1.60;;;5.40;99.90;;;;;;6244422;22;20023;-86
2023/03/29 03:09:11;;;;;;;4.65;2.13;;;5.40;99.90;;;;;;6243395;22;20159;-87
2023/03/29 03:11:37;;;;;;;5.70;2.03;;;5.40;99.90;;;;;;6270747;22;20103;-85
2023/03/29 03:14:04;;;;;;;4.77;1.67;;;5.40;99.90;;;;;;6270647;22;20292;-86
2023/03/29 03:16:30;;;;;;;3.83;1.60;;;5.40;99.90;;;;;;6243824;22;20018;-85
2023/03/29 03:18:56;;;;;;;4.03;1.70;;;5.50;99.90;;;;;;6243490;22;20015;-86
2023/03/29 03:21:22;;;;;;;4.20;1.73;;;5.40;99.90;;;;;;6243318;22;20023;-86
2023/03/29 03:23:48;;;;;;;6.97;1.67;;;5.40;99.90;;;;;;6243386;22;20267;-86
2023/03/29 03:26:16;;;;;;;4.93;1.80;;;5.40;99.90;;;;;;6243125;22;20048;-87
2023/03/29 03:28:44;;;;;;;5.30;1.88;;;5.40;99.90;;;;;;6243295;22;20460;-86
2023/03/29 03:31:12;;;;;;;4.50;2.05;;;5.50;99.90;;;;;;6243243;22;20109;-85
2023/03/29 03:33:39;;;;;;;5.70;1.98;;;5.40;99.90;;;;;;6243361;22;20057;-90
2023/03/29 03:36:07;;;;;;;5.28;2.05;;;5.50;99.90;;;;;;6243288;22;20024;-92
2023/03/29 03:38:33;;;;;;;8.30;2.30;;;5.50;99.90;;;;;;6243119;22;20020;-85
2023/03/29 03:41:00;;;;;;;6.32;1.90;;;5.50;99.90;;;;;;6270338;22;20016;-86
2023/03/29 03:43:27;;;;;;;6.90;1.90;;;5.50;99.90;;;;;;6218000;22;20021;-90
2023/03/29 03:45:53;;;;;;;4.80;2.40;;;5.50;99.90;;;;;;6243265;22;20083;-86
2023/03/29 03:48:19;;;;;;;5.00;2.00;;;5.50;99.90;;;;;;6244612;22;20030;-86
2023/03/29 03:50:56;;;;;;;4.77;2.13;;;5.50;99.90;;;;;;6244729;22;20020;-86
2023/03/29 03:53:23;;;;;;;5.65;2.40;;;5.50;99.90;;;;;;6244709;22;20378;-87
2023/03/29 03:55:50;;;;;;;6.38;2.10;;;5.40;99.90;;;;;;6244873;22;20020;-86
2023/03/29 03:58:17;;;;;;;4.82;1.90;;;5.40;99.90;;;;;;6271827;22;20037;-86
2023/03/29 04:00:44;;;;;;;6.57;2.35;;;5.40;99.90;;;;;;6219512;22;20023;-85
2023/03/29 04:03:09;;;;;;;;;;;5.50;99.90;;;;;;6220010;22;20464;-91
2023/03/29 04:05:39;;;;;;;6.00;2.20;;;5.50;99.90;;;;;;6219556;22;19915;-86
2023/03/29 04:08:05;;;;;;;5.45;2.25;;;5.50;99.90;;;;;;6219254;22;20070;-89
2023/03/29 04:10:33;;;;;;;7.05;2.17;;;5.50;99.90;;;;;;6219544;22;20087;-86
2023/03/29 04:13:03;;;;;;;6.93;2.25;;;5.50;99.90;;;;;;6244544;22;20008;-86
2023/03/29 04:15:30;;;;;;;8.38;2.40;;;5.40;99.90;;;;;;6244822;22;20051;-85
2023/03/29 04:17:57;;;;;;;6.35;2.15;;;5.50;99.90;;;;;;6219602;22;20502;-85
2023/03/29 04:20:24;;;;;;;6.20;2.55;;;5.50;99.90;;;;;;6219440;22;20095;-87
2023/03/29 04:22:50;;;;;;;4.88;2.33;;;5.50;99.90;;;;;;6244618;22;20012;-85
2023/03/29 04:25:16;;;;;;;6.32;2.35;;;5.50;99.90;;;;;;6244457;22;20122;-90
2023/03/29 04:27:43;;;;;;;7.72;2.40;;;5.50;99.90;;;;;;6219274;22;20024;-87
2023/03/29 04:30:10;;;;;;;6.80;2.33;;;5.50;99.90;;;;;;6244631;22;20425;-86
2023/03/29 04:32:36;;;;;;;;;;;5.50;99.90;;;;;;6244898;22;20098;-87
2023/03/29 04:35:03;;;;;;;5.80;2.30;;;5.50;99.90;;;;;;6272568;22;19915;-93
2023/03/29 04:37:30;;;;;;;5.30;2.35;;;5.50;99.90;;;;;;6220061;22;20053;-87
2023/03/29 04:39:59;;;;;;;6.45;2.28;;;5.50;99.90;;;;;;6246011;22;20020;-91
2023/03/29 04:42:26;;;;;;;6.53;2.33;;;5.50;99.90;;;;;;6220127;22;20012;-86
2023/03/29 04:44:52;;;;;;;6.10;2.65;;;5.60;99.90;;;;;;6220155;22;20079;-86
2023/03/29 04:47:18;;;;;;;6.50;2.73;;;5.60;99.90;;;;;;6245130;22;20012;-89
2023/03/29 04:49:44;;;;;;;6.82;2.67;;;5.60;99.90;;;;;;6272431;22;20016;-86
2023/03/29 04:52:10;;;;;;;7.63;2.60;;;5.60;99.90;;;;;;6270538;22;20448;-89
2023/03/29 04:54:51;;;;;;;6.77;2.70;;;5.60;99.90;;;;;;6272292;22;20015;-86
2023/03/29 04:57:30;;;;;;;5.85;2.13;;;5.60;99.90;;;;;;6245871;22;20344;-86
2023/03/29 04:59:56;;;;;;;6.50;2.70;;;5.60;99.90;;;;;;6245599;22;20072;-92
2023/03/29 05:02:22;;;;;;;6.40;2.87;;;5.60;99.90;;;;;;6245304;22;20018;-87
2023/03/29 05:04:48;;;;;;;5.78;2.78;;;5.60;99.90;;;;;;6244995;22;20247;-87
2023/03/29 05:07:14;;;;;;;8.63;3.00;;;5.60;99.90;;;;;;6245006;22;20072;-88
2023/03/29 05:09:41;;;;;;;8.88;2.60;;;5.70;99.90;;;;;;6245187;22;20518;-88
2023/03/29 05:12:07;;;;;;;6.15;2.60;;;5.70;99.90;;;;;;6245730;22;20016;-90
2023/03/29 05:14:33;;;;;;;6.33;2.57;;;5.70;99.90;;;;;;6220355;22;20456;-88
2023/03/29 05:16:58;;;;;;;5.97;2.30;;;5.70;99.90;;;;;;6195635;22;20016;-87
2023/03/29 05:19:24;;;;;;;5.93;2.67;;;5.70;99.90;;;;;;6274245;22;20019;-86
2023/03/29 05:21:51;;;;;;;5.77;2.83;;;5.70;99.90;;;;;;6246690;22;20012;-87
2023/03/29 05:24:22;;;;;;;7.22;3.47;;;5.70;99.90;;;;;;6247373;22;20015;-87
2023/03/29 05:26:50;;;;;;;7.10;2.85;;;5.70;99.90;;;;;;6245393;22;20016;-87
2023/03/29 05:29:16;;;;;;;7.13;2.80;;;5.80;99.90;;;;;;6196889;22;20407;-87
2023/03/29 05:31:42;;;;;;;7.10;2.87;;;5.70;99.90;;;;;;6221251;22;20024;-95
2023/03/29 05:34:08;;;;;;;7.50;3.50;;;5.80;99.90;;;;;;6274438;22;20269;-89
2023/03/29 05:36:33;;;;;;;6.17;2.60;;;5.80;99.90;;;;;;6273926;22;20046;-87
2023/03/29 05:39:00;;;;;;;8.07;3.30;;;5.80;99.90;;;;;;6246752;22;20500;-86
2023/03/29 05:41:26;;;;;;;;;;;5.70;99.90;;;;;;6273090;22;20019;-86
2023/03/29 05:43:51;;;;;;;7.65;3.05;;;5.80;99.90;;;;;;6245301;22;19924;-87
2023/03/29 05:46:18;;;;;;;6.73;3.37;;;5.80;99.90;;;;;;6220989;22;20306;-87
2023/03/29 05:48:43;;;;;;;5.82;2.80;;;5.80;99.90;;;;;;6273919;22;20015;-86
2023/03/29 05:51:09;;;;;;;7.07;3.07;;;5.80;99.90;;;;;;6249936;22;20020;-84
2023/03/29 05:53:35;;;;;;;6.73;3.27;;;5.80;99.90;;;;;;6252885;22;20071;-86
2023/03/29 05:56:02;;;;;;;7.50;3.35;;;5.80;99.90;;;;;;6281335;22;20030;-85
2023/03/29 05:58:29;;;;;;;8.77;3.63;;;5.80;99.90;;;;;;6250203;22;20015;-87
2023/03/29 06:00:56;;;;;;;6.93;2.97;;;5.90;99.90;;;;;;6243642;22;20432;-86
2023/03/29 06:03:26;;;;;;;6.47;2.92;;;5.90;99.90;;;;;;6271401;22;20016;-84
2023/03/29 06:06:01;;;;;;;6.85;3.17;;;5.90;99.90;;;;;;6244147;22;20043;-85
2023/03/29 06:08:27;;;;;;;7.03;3.42;;;6.00;99.90;;;;;;6271140;22;20020;-86
2023/03/29 06:11:01;;;;;;;6.40;2.97;;;6.00;99.90;;;;;;6270944;22;20016;-86
2023/03/29 06:13:28;;;;;;;6.90;3.35;;;6.00;99.90;;;;;;6244292;22;20016;-87
2023/03/29 06:15:54;;;;;;;7.57;3.22;;;6.00;99.90;;;;;;6244109;22;20011;-87
2023/03/29 06:18:20;;;;;;;7.13;3.00;;;6.00;99.90;;;;;;6271348;22;20023;-88
2023/03/29 06:21:00;;;;;;;7.57;3.17;;;6.00;99.90;;;;;;6244417;22;20429;-87
2023/03/29 06:23:26;;;;;;;5.93;2.83;;;6.00;99.90;;;;;;6244343;22;20020;-87
2023/03/29 06:25:52;;;;;;;5.80;2.67;;;6.10;99.90;;;;;;6244214;22;20020;-84
2023/03/29 06:28:18;;;;;;;7.73;3.17;;;6.10;99.90;;;;;;6219747;22;20020;-85
2023/03/29 06:30:48;;;;;;;6.82;2.92;;;6.10;99.90;;;;;;6244415;22;20477;-82
2023/03/29 06:33:14;;;;;;;6.63;2.60;;;6.10;99.90;;;;;;6270993;22;20022;-84
2023/03/29 06:35:45;;;;;;;7.80;3.35;;;6.10;99.90;;;;;;6244148;22;20054;-86
2023/03/29 06:38:25;;;;;;;7.05;3.45;;;6.20;99.90;;;;;;6244333;22;20202;-87
2023/03/29 06:41:03;;;;;;;7.30;3.40;;;6.20;99.90;;;;;;6244496;22;20020;-85
2023/03/29 06:43:29;;;;;;;6.45;3.25;;;6.20;99.90;;;;;;6221211;22;20088;-90
2023/03/29 06:45:54;;;;;;;8.00;3.40;;;6.20;99.90;;;;;;6194685;22;20024;-88
2023/03/29 06:48:20;;;;;;;8.77;3.27;;;6.30;99.90;;;;;;6244227;22;20072;-88
2023/03/29 06:50:53;;;;;;;9.77;3.00;;;6.20;99.90;;;;;;6244538;22;20077;-87
2023/03/29 06:53:20;;;;;;;6.97;3.15;;;6.30;99.90;;;;;;6243852;22;20016;-82
2023/03/29 06:55:47;;;;;;;7.88;3.47;;;6.30;99.90;;;;;;6243820;22;20020;-82
2023/03/29 06:58:12;;;;;;;7.15;3.35;;;6.30;99.90;;;;;;6270889;22;20475;-83
2023/03/29 07:00:38;;;;;;;7.03;3.43;;;6.30;99.90;;;;;;6271128;22;20094;-83
2023/03/29 07:03:18;;;;;;;7.53;3.37;;;6.30;99.90;;;;;;6244066;22;20108;-83
2023/03/29 07:05:44;;;;;;;8.55;3.40;;;6.30;99.90;;;;;;6218359;22;20487;-82
2023/03/29 07:08:12;;;;;;;6.45;2.72;;;6.40;99.90;;;;;;6270969;22;20016;-82
2023/03/29 07:10:46;;;;;;;9.85;3.53;;;6.40;99.90;;;;;;6270910;22;20027;-84
2023/03/29 07:13:13;;;;;;;8.45;4.00;;;6.40;99.90;;;;;;6269899;22;20011;-83
2023/03/29 07:15:40;;;;;;;7.78;3.63;;;6.40;99.90;;;;;;6243769;22;20012;-81
2023/03/29 07:18:09;;;;;;;9.57;3.63;;;6.50;99.90;;;;;;6243151;22;20015;-82
2023/03/29 07:20:37;;;;;;;9.80;4.10;;;6.60;99.90;;;;;;6269057;22;20016;-82
2023/03/29 07:23:04;;;;;;;8.68;3.65;;;6.60;99.90;;;;;;6272446;22;20043;-83
2023/03/29 07:25:30;;;;;;;;;;;6.70;99.90;;;;;;6244381;22;20086;-81
2023/03/29 07:27:57;;;;;;;6.45;3.28;;;6.70;99.90;;;;;;6244287;22;19947;-82
2023/03/29 07:30:27;;;;;;;12.35;3.65;;;6.70;99.90;;;;;;6245311;22;20016;-83
2023/03/29 07:32:54;;;;;;;6.70;3.30;;;6.80;99.90;;;;;;6245014;22;20144;-86
2023/03/29 07:35:22;;;;;;;7.70;3.05;;;6.90;99.90;;;;;;6244756;22;20015;-86
2023/03/29 07:37:48;;;;;;;7.40;3.10;;;7.00;99.90;;;;;;6272211;22;20429;-85
2023/03/29 07:40:18;;;;;;;7.47;3.40;;;7.00;99.90;;;;;;6244939;22;20348;-85
2023/03/29 07:42:50;;;;;;;8.35;4.00;;;7.00;99.90;;;;;;6193513;22;20007;-84
2023/03/29 07:45:16;;;;;;;6.88;3.58;;;7.00;99.90;;;;;;6218441;22;20142;-84
2023/03/29 07:47:42;;;;;;;8.03;3.67;;;7.00;99.90;;;;;;6244890;22;20024;-84
2023/03/29 07:50:09;;;;;;;7.95;3.65;;;7.10;99.90;;;;;;6244713;22;20087;-84
2023/03/29 07:52:37;;;;;;;9.52;3.80;;;7.00;99.90;;;;;;6244947;22;20079;-84
2023/03/29 07:55:06;;;;;;;7.13;3.60;;;7.00;99.90;;;;;;6244944;22;20012;-86
2023/03/29 07:57:31;;;;;;;6.72;3.03;;;7.00;99.90;;;;;;6219556;22;20107;-86
2023/03/29 07:59:57;;;;;;;8.90;3.50;;;7.00;99.90;;;;;;6245828;22;20051;-86
2023/03/29 08:02:23;;;;;;;6.03;3.03;;;7.10;99.90;;;;;;6219832;22;20074;-85
2023/03/29 08:04:48;;;;;;;6.00;3.33;;;7.10;99.90;;;;;;6245254;22;20012;-85
2023/03/29 08:07:17;;;;;;;9.80;4.00;;;7.10;99.90;;;;;;6244872;22;20020;-87
2023/03/29 08:09:43;;;;;;;7.55;3.47;;;7.10;99.90;;;;;;6244861;22;20352;-87
2023/03/29 08:12:09;;;;;;;7.47;3.40;;;7.20;99.90;;;;;;6244968;22;20090;-87
2023/03/29 08:14:35;;;;;;;6.30;3.50;;;7.20;99.90;;;;;;6244835;22;20019;-85
2023/03/29 08:17:02;;;;;;;7.83;3.27;;;7.20;99.90;;;;;;6272768;22;20245;-87
2023/03/29 08:19:28;;;;;;;8.55;3.97;;;7.30;99.90;;;;;;6244687;22;20444;-86
2023/03/29 08:21:53;;;;;;;6.77;3.00;;;7.30;99.90;;;;;;6194908;22;20022;-88
2023/03/29 08:24:20;;;;;;;7.60;3.50;;;7.40;99.90;;;;;;6244766;22;20020;-85
2023/03/29 08:26:47;;;;;;;7.60;3.78;;;7.50;99.90;;;;;;6244701;22;20062;-85
2023/03/29 08:29:13;;;;;;;7.50;3.22;;;7.60;99.90;;;;;;6219296;22;20012;-85
2023/03/29 08:31:39;;;;;;;6.30;3.00;;;7.60;99.90;;;;;;6219325;22;20012;-84
2023/03/29 08:34:05;;;;;;;6.90;3.40;;;7.70;99.90;;;;;;6218675;22;20023;-84
2023/03/29 08:36:31;;;;;;;7.75;3.38;;;7.70;99.90;;;;;;6271637;22;20016;-87
2023/03/29 08:38:56;;;;;;;7.40;3.60;;;7.80;99.90;;;;;;6245636;22;20008;-88
2023/03/29 08:41:45;;;;;;;7.33;3.33;;;7.80;99.90;;;;;;6220150;22;20030;-86
2023/03/29 08:44:42;;;;;;;8.13;3.40;;;7.90;99.90;;;;;;6244898;22;20015;-83
2023/03/29 08:47:29;;;;;;;6.50;2.90;;;8.00;99.90;;;;;;6271990;22;20106;-86
2023/03/29 08:49:56;;;;;;;7.27;3.33;;;8.20;99.90;;;;;;6272646;22;20023;-87
2023/03/29 08:52:29;;;;;;;8.02;3.53;;;8.20;99.90;;;;;;6221589;22;20269;-84
2023/03/29 08:54:58;;;;;;;9.85;3.38;;;8.20;99.90;;;;;;6245043;22;20022;-83
2023/03/29 08:57:47;;;;;;;10.68;3.80;;;8.20;99.90;;;;;;6242668;22;20015;-82
2023/03/29 09:00:21;;;;;;;8.43;3.30;;;8.30;99.90;;;;;;6268245;22;20016;-87
2023/03/29 09:02:52;;;;;;;8.68;3.40;;;8.30;99.90;;;;;;6269478;22;20468;-86
2023/03/29 09:05:33;;;;;;;8.38;3.45;;;8.50;99.90;;;;;;6271474;22;20504;-88
2023/03/29 09:08:00;;;;;;;9.07;3.88;;;8.60;99.90;;;;;;6244178;22;20091;-85
2023/03/29 09:10:46;;;;;;;7.47;3.08;;;8.60;99.90;;;;;;6271847;22;20020;-85
2023/03/29 09:13:53;;;;;;;6.65;3.15;;;8.60;99.90;;;;;;6244563;22;20052;-85
2023/03/29 09:16:22;;;;;;;7.65;3.60;;;8.70;99.90;;;;;;6244207;22;20070;-84
2023/03/29 09:18:55;;;;;;;8.43;3.35;;;8.70;99.90;;;;;;6244407;22;20015;-84
2023/03/29 09:21:24;;;;;;;8.75;3.67;;;8.70;99.90;;;;;;6219088;22;20456;-82
2023/03/29 09:24:14;;;;;;;8.77;4.15;;;8.80;99.90;;;;;;6271596;22;20061;-83
2023/03/29 09:26:55;;;;;;;9.10;3.13;;;8.80;99.90;;;;;;6244016;22;20016;-84
2023/03/29 09:29:23;;;;;;;7.88;3.65;;;8.80;99.90;;;;;;6244230;22;20011;-83
2023/03/29 09:31:52;;;;;;;8.77;3.70;;;8.90;99.90;;;;;;6244198;22;20072;-82
2023/03/29 09:34:32;;;;;;;10.60;3.58;;;8.90;99.90;;;;;;6271208;22;20049;-81
2023/03/29 09:37:05;;;;;;;9.60;3.63;;;9.10;99.90;;;;;;6243595;22;20030;-81
2023/03/29 09:39:31;;;;;;;11.63;4.18;;;9.10;99.90;;;;;;6270908;22;20460;-81
2023/03/29 09:42:00;;;;;;;9.67;4.07;;;9.20;99.90;;;;;;6271010;22;20020;-80
2023/03/29 09:44:38;;;;;;;10.90;4.20;;;9.20;99.90;;;;;;6269705;22;20095;-81
2023/03/29 09:47:13;;;;;;;8.30;3.55;;;9.20;99.90;;;;;;6244191;22;20059;-81
2023/03/29 09:49:44;;;;;;;7.75;4.07;;;9.30;99.90;;;;;;6218603;22;20012;-82
2023/03/29 09:52:15;;;;;;;8.48;3.50;;;9.20;99.90;;;;;;6270225;22;20019;-81
2023/03/29 09:54:42;;;;;;;10.93;3.95;;;9.30;99.90;;;;;;6244162;22;20100;-80
2023/03/29 09:57:15;;;;;;;9.98;4.53;;;9.30;99.90;;;;;;6241995;22;20468;-82
2023/03/29 09:59:41;;;;;;;9.82;4.28;;;9.30;99.90;;;;;;6270449;22;20052;-83
2023/03/29 10:02:10;;;;;;;11.27;4.30;;;9.30;99.90;;;;;;6271259;22;20019;-82
2023/03/29 10:04:37;;;;;;;11.02;4.05;;;9.40;99.90;;;;;;6271155;22;20011;-81
2023/03/29 10:07:07;;;;;;;9.73;4.35;;;9.40;99.90;;;;;;6243729;22;20441;-82
2023/03/29 10:09:34;;;;;;;13.93;4.43;;;9.40;99.90;;;;;;6271051;22;20471;-81
2023/03/29 10:12:04;;;;;;;12.55;4.57;;;9.50;99.90;;;;;;6243961;22;20019;-81
2023/03/29 10:14:51;;;;;;;11.10;4.38;;;9.50;99.90;;;;;;6271302;22;20091;-83
2023/03/29 10:17:23;;;;;;;11.25;4.28;;;9.50;99.90;;;;;;6244360;22;20023;-84
2023/03/29 10:19:56;;;;;;;10.35;4.55;;;9.50;99.90;;;;;;6271153;22;20440;-83
2023/03/29 10:22:26;;;;;;;9.45;3.78;;;9.50;99.90;;;;;;6271265;22;20020;-83
2023/03/29 10:24:53;;;;;;;10.52;4.65;;;9.50;99.90;;;;;;6243850;22;20023;-82
2023/03/29 10:27:22;;;;;;;9.25;3.97;;;9.50;99.90;;;;;;6244020;22;20042;-84
2023/03/29 10:29:50;;;;;;;10.88;4.68;;;9.60;99.90;;;;;;6270925;22;20018;-84
2023/03/29 10:32:24;;;;;;;12.07;4.97;;;9.60;99.90;;;;;;6270678;22;20051;-83
2023/03/29 10:34:51;;;;;;;10.30;4.78;;;9.70;99.90;;;;;;6270957;22;20020;-84
2023/03/29 10:37:18;;;;;;;;;;;9.60;99.90;;;;;;6244248;22;20528;-85
2023/03/29 10:39:45;;;;;;;10.52;4.18;;;9.70;99.90;;;;;;6244383;22;20003;-84
2023/03/29 10:42:16;;;;;;;13.10;4.78;;;9.60;99.90;;;;;;6243541;22;20066;-82
2023/03/29 10:44:42;;;;;;;10.82;5.13;;;9.60;99.90;;;;;;6269616;22;20019;-86
2023/03/29 10:47:19;;;;;;;11.15;4.53;;;9.60;99.90;;;;;;6243561;22;20023;-83
2023/03/29 10:49:57;;;;;;;11.30;5.25;;;9.60;99.90;;;;;;6270638;22;20395;-84
2023/03/29 10:52:24;;;;;;;9.60;4.70;;;9.70;99.90;;;;;;6243891;22;20018;-84
2023/03/29 10:54:53;;;;;;;12.30;4.97;;;9.70;99.90;;;;;;6270796;22;20023;-83
2023/03/29 10:57:56;;;;;;;12.48;4.68;;;9.70;99.90;;;;;;6244103;22;20024;-83
2023/03/29 11:00:36;;;;;;;9.57;4.13;;;9.80;99.90;;;;;;6272178;22;20359;-83
2023/03/29 11:03:39;;;;;;;10.02;4.60;;;9.90;99.90;;;;;;6244060;22;20222;-82
2023/03/29 11:06:19;;;;;;;10.55;4.60;;;9.90;99.90;;;;;;6218521;22;20015;-83
2023/03/29 11:08:57;;;;;;;12.65;4.80;;;10.00;99.90;;;;;;6270650;22;20045;-83
2023/03/29 11:11:28;;;;;;;;;;;10.00;99.90;;;;;;6272413;22;20452;-83
2023/03/29 11:14:17;;;;;;;9.75;5.07;;;10.10;99.90;;;;;;6272382;22;19960;-94
2023/03/29 11:17:11;;;;;;;11.52;5.55;;;10.10;99.90;;;;;;6245197;22;20034;-85
2023/03/29 11:20:07;;;;;;;9.98;5.30;;;10.20;99.90;;;;;;6272482;22;20034;-84
2023/03/29 11:23:00;;;;;;;10.65;5.50;;;10.30;99.90;;;;;;6219528;22;20090;-84
2023/03/29 11:25:49;;;;;;;18.02;7.90;;;10.40;99.90;;;;;;6245028;22;20020;-93
2023/03/29 11:28:27;;;;;;;12.80;5.50;;;10.50;99.90;;;;;;6244997;22;20422;-86
2023/03/29 11:31:11;;;;;;;10.95;4.65;;;10.60;99.90;;;;;;6241851;22;20063;-87
2023/03/29 11:34:02;;;;;;;10.25;5.25;;;10.60;99.90;;;;;;6244923;22;20026;-85
2023/03/29 11:36:43;;;;;;;10.98;5.18;;;10.70;99.90;;;;;;6244524;22;20152;-86
2023/03/29 11:39:46;;;;;;;13.45;5.68;;;10.90;99.90;;;;;;6243275;22;20024;-87
2023/03/29 11:42:27;;;;;;;11.73;5.55;;;10.90;99.90;;;;;;6281962;22;20020;-87
2023/03/29 11:44:56;;;;;;;10.20;5.35;;;11.10;99.90;;;;;;6219745;22;20012;-88
2023/03/29 11:47:36;;;;;;;11.68;5.70;;;11.20;99.90;;;;;;6271897;22;20015;-87
2023/03/29 11:50:18;;;;;;;11.90;5.70;;;11.20;99.90;;;;;;6245368;22;20083;-85
2023/03/29 11:53:03;;;;;;;10.38;5.63;;;11.30;99.90;;;;;;6248213;22;20045;-89
2023/03/29 11:55:36;;;;;;;11.02;4.90;;;11.30;99.90;;;;;;6278605;22;20020;-86
2023/03/29 11:58:09;;;;;;;11.45;5.13;;;11.40;99.90;;;;;;6246821;22;20080;-86
2023/03/29 12:00:55;;;;;;;10.73;5.38;;;11.40;99.90;;;;;;6245646;22;20024;-85
2023/03/29 12:03:37;;;;;;;9.90;5.32;;;11.50;99.90;;;;;;6271740;22;20022;-87
2023/03/29 12:06:16;;;;;;;10.85;5.57;;;11.50;99.90;;;;;;6244720;22;20440;-89
2023/03/29 12:08:57;;;;;;;13.02;5.78;;;11.60;99.90;;;;;;6271426;22;20019;-86
2023/03/29 12:11:36;;;;;;;9.98;5.72;;;11.60;99.90;;;;;;6244832;22;20444;-86
2023/03/29 12:14:09;;;;;;;11.02;5.20;;;11.60;99.90;;;;;;6244792;22;20029;-85
2023/03/29 12:17:14;;;;;;;10.07;5.20;;;11.60;99.90;;;;;;6271797;22;20018;-83
2023/03/29 12:19:47;;;;;;;8.45;5.00;;;11.60;99.90;;;;;;6244697;22;20023;-85
2023/03/29 12:22:13;;;;;;;11.40;5.15;;;11.60;99.90;;;;;;6244730;22;20022;-85
2023/03/29 12:24:42;;;;;;;10.47;4.83;;;11.70;99.90;;;;;;6219572;22;20011;-85
2023/03/29 12:27:41;;;;;;;12.10;5.07;;;11.70;99.90;;;;;;6244930;22;20350;-86
2023/03/29 12:30:45;;;;;;;9.35;4.55;;;11.80;99.90;;;;;;6255155;22;20072;-85
2023/03/29 12:33:14;;;;;;;10.10;5.22;;;11.90;99.90;;;;;;6244498;22;20027;-84
2023/03/29 12:36:07;;;;;;;11.77;5.25;;;12.00;99.90;;;;;;6244647;22;20019;-87
2023/03/29 12:38:34;;;;;;;9.70;4.85;;;12.20;99.90;;;;;;6219369;22;20086;-86
2023/03/29 12:41:09;;;;;;;8.30;4.22;;;12.20;99.90;;;;;;6194218;22;20020;-86
2023/03/29 12:43:40;;;;;;;7.82;4.38;;;12.30;99.90;;;;;;6244509;22;20015;-88
2023/03/29 12:46:07;;;;;;;9.63;4.28;;;12.30;99.90;;;;;;6244595;22;20015;-86
2023/03/29 12:48:37;;;;;;;9.98;4.40;;;12.30;99.90;;;;;;6244523;22;20094;-85
2023/03/29 12:51:07;;;;;;;10.35;4.70;;;12.40;99.90;;;;;;6244586;22;20015;-83
2023/03/29 12:53:37;;;;;;;9.27;4.78;;;12.40;99.90;;;;;;6244736;22;20024;-88
2023/03/29 12:56:07;;;;;;;8.95;4.47;;;12.40;99.90;;;;;;6219455;22;20016;-85
2023/03/29 12:58:38;;;;;;;11.43;4.60;;;12.40;99.90;;;;;;6219308;22;20034;-87
2023/03/29 13:01:06;;;;;;;9.60;4.78;;;12.40;99.90;;;;;;6244758;22;20050;-86
2023/03/29 13:03:47;;;;;;;8.07;4.38;;;12.40;99.90;;;;;;6244777;22;20447;-86
2023/03/29 13:07:02;;;;;;;8.23;4.68;;;12.30;99.90;;;;;;6219423;22;20517;-85
2023/03/29 13:09:34;;;;;;;7.95;4.18;;;12.30;99.90;;;;;;6244431;22;20024;-84
2023/03/29 13:12:10;;;;;;;7.22;3.97;;;12.30;99.90;;;;;;6272244;22;20012;-86
2023/03/29 13:14:41;;;;;;;9.52;4.53;;;12.30;99.90;;;;;;6245003;22;20019;-88
2023/03/29 13:17:17;;;;;;;8.57;5.05;;;12.30;99.90;;;;;;6247345;22;20023;-85
2023/03/29 13:20:30;;;;;;;6.53;3.63;;;12.30;99.90;;;;;;6273015;22;20016;-87
2023/03/29 13:23:39;;;;;;;9.95;4.70;;;12.30;99.90;;;;;;6305831;22;20019;-85